Portada
METAR-TAF:

METAR-TAF

Aeropuertos :

Aeropuerto de Huesca-Pirineos

Huesca, España

latitud: 42-04-32N, longitud: 0-18-58W, altitud: 539 m

Observación

El informe se hizo hace 27 minutos, a las 19:30 UTC
Viento calma
Temperatura 5°C
Humedad 93%
Presión 1019 hPa
Visibilidad 10 km o más
sin nubes por debajo de 1500 m y sin presencia de cumulonimbus.

METAR: LEHC 291930Z AUTO 00000KT CAVOK 05/04 Q1019

Hora: 20:57 (19:57 UTC)

Pronóstico

El informe se hizo hace 5 horas y 57 minutos, a las 14:00 UTC
Pronóstico válido del 29 a las 15 UTC al 30 a las 15 UTC
Viento 3 kt con dirección variable
Visibilidad 10 km o más
Escasas nubes a una altura de 4000 ft
Temporalmente
del 29 a las 22 UTC al 30 a las 09 UTC
Visibilidad: 0300 m
niebla
Temporalmente
del 29 a las 22 UTC al 30 a las 09 UTC
Visibilidad: 2000 m
neblina

TAF: LEHC 291400Z 2915/3015 VRB03KT 9999 FEW040 TX15/3013Z TN05/3006Z TEMPO 2922/3009 0300 FG TEMPO 2922/3009 2000 BR

Observaciones y pronósticos meteorológicos de más de 4000 aeropuertos (mensajes METAR y TAF).

Los puntos amarillos y rojos representan las estaciones disponibles.

Ponga el ratón en el punto deseado para ver el nombre de la estación.

Haga clic para ver las observaciones y los pronósticos meteorológicos.

Para cambiar el mapa : haga clic en los botones verdes con una cruz de color negro para hacer un zoom, en el botón verde con un guión para alejar o en las flechas verdes para mapas adyacentes.


METAR-TAF: